Search for airport 
image banner adimage banner adimage banner ad
image banner ad

MHEP - El Pentagono

Located in El Pentagono, Honduras

ICAO - , IATA -

Data provided by Airmate  

General information

Coordinates: N15°35'0" W87°23'35"
Elevation is feet MSL.
 
View others Airports in Atlantida

Operational data

Special qualification required
Current time UTC:
Current local time:
Weather at : MHTE - Tela ( 23 km )
METAR: MHTE 082200Z 03006KT 9999 SCT026TCU SCT250 31/28 Q1008
View NOTAMs / SUP AIP / TFR affecting this airport [VIEW]
Communications frequencies: [VIEW]

Runways:

Airport contact information

Address: El Pentagono Honduras

Satellite view of MHEP